sensor_id;sensor_type;location;lat;lon;timestamp;P1;durP1;ratioP1;P2;durP2;ratioP2
67037;SDS011;53940;53.204;6.590;2022-09-11T00:01:48;0.50;;;0.50;;
67037;SDS011;53940;53.204;6.590;2022-09-11T00:04:49;0.68;;;0.50;;
67037;SDS011;53940;53.204;6.590;2022-09-11T00:07:49;0.77;;;0.60;;
67037;SDS011;53940;53.204;6.590;2022-09-11T00:10:49;0.60;;;0.50;;
67037;SDS011;53940;53.204;6.590;2022-09-11T00:13:50;0.57;;;0.50;;
67037;SDS011;53940;53.204;6.590;2022-09-11T00:16:53;1.00;;;0.70;;
67037;SDS011;53940;53.204;6.590;2022-09-11T00:19:53;0.68;;;0.50;;
67037;SDS011;53940;53.204;6.590;2022-09-11T00:22:53;0.73;;;0.45;;
67037;SDS011;53940;53.204;6.590;2022-09-11T00:25:54;0.88;;;0.50;;
67037;SDS011;53940;53.204;6.590;2022-09-11T00:28:54;0.68;;;0.50;;
67037;SDS011;53940;53.204;6.590;2022-09-11T00:31:56;1.00;;;0.45;;
67037;SDS011;53940;53.204;6.590;2022-09-11T00:34:56;0.55;;;0.47;;
67037;SDS011;53940;53.204;6.590;2022-09-11T00:37:57;0.90;;;0.60;;
67037;SDS011;53940;53.204;6.590;2022-09-11T00:40:57;0.90;;;0.60;;
67037;SDS011;53940;53.204;6.590;2022-09-11T00:44:01;0.80;;;0.50;;
67037;SDS011;53940;53.204;6.590;2022-09-11T00:47:04;1.58;;;0.70;;
67037;SDS011;53940;53.204;6.590;2022-09-11T00:50:09;1.08;;;0.60;;
67037;SDS011;53940;53.204;6.590;2022-09-11T00:53:13;0.93;;;0.70;;
67037;SDS011;53940;53.204;6.590;2022-09-11T00:56:16;1.30;;;0.70;;
67037;SDS011;53940;53.204;6.590;2022-09-11T00:59:18;0.95;;;0.70;;
67037;SDS011;53940;53.204;6.590;2022-09-11T01:02:24;1.27;;;0.80;;
67037;SDS011;53940;53.204;6.590;2022-09-11T01:05:28;1.52;;;0.80;;
67037;SDS011;53940;53.204;6.590;2022-09-11T01:08:33;0.52;;;0.50;;
67037;SDS011;53940;53.204;6.590;2022-09-11T01:21:26;1.50;;;1.00;;
67037;SDS011;53940;53.204;6.590;2022-09-11T01:28:09;1.35;;;0.90;;
67037;SDS011;53940;53.204;6.590;2022-09-11T01:31:19;1.17;;;0.77;;
67037;SDS011;53940;53.204;6.590;2022-09-11T01:34:34;1.70;;;0.90;;
67037;SDS011;53940;53.204;6.590;2022-09-11T01:37:40;1.42;;;1.00;;
67037;SDS011;53940;53.204;6.590;2022-09-11T01:40:54;1.42;;;0.80;;
67037;SDS011;53940;53.204;6.590;2022-09-11T01:44:06;1.58;;;0.88;;
67037;SDS011;53940;53.204;6.590;2022-09-11T01:47:11;1.38;;;1.00;;
67037;SDS011;53940;53.204;6.590;2022-09-11T01:50:12;1.55;;;1.00;;
67037;SDS011;53940;53.204;6.590;2022-09-11T01:53:17;1.88;;;0.90;;
67037;SDS011;53940;53.204;6.590;2022-09-11T01:56:26;1.60;;;1.08;;
67037;SDS011;53940;53.204;6.590;2022-09-11T01:59:38;1.40;;;0.90;;
67037;SDS011;53940;53.204;6.590;2022-09-11T02:02:44;1.73;;;1.10;;
67037;SDS011;53940;53.204;6.590;2022-09-11T02:08:57;1.38;;;0.85;;
67037;SDS011;53940;53.204;6.590;2022-09-11T02:12:02;1.52;;;1.20;;
67037;SDS011;53940;53.204;6.590;2022-09-11T02:15:08;2.15;;;1.30;;
67037;SDS011;53940;53.204;6.590;2022-09-11T02:18:17;2.15;;;1.27;;
67037;SDS011;53940;53.204;6.590;2022-09-11T02:21:23;1.63;;;1.10;;
67037;SDS011;53940;53.204;6.590;2022-09-11T02:24:24;1.80;;;1.13;;
67037;SDS011;53940;53.204;6.590;2022-09-11T02:27:26;1.83;;;1.05;;
67037;SDS011;53940;53.204;6.590;2022-09-11T02:30:27;1.60;;;1.10;;
67037;SDS011;53940;53.204;6.590;2022-09-11T02:33:34;1.52;;;0.90;;
67037;SDS011;53940;53.204;6.590;2022-09-11T02:39:54;1.48;;;0.85;;
67037;SDS011;53940;53.204;6.590;2022-09-11T02:43:16;1.25;;;0.80;;
67037;SDS011;53940;53.204;6.590;2022-09-11T02:46:35;1.52;;;1.00;;
67037;SDS011;53940;53.204;6.590;2022-09-11T02:50:13;1.67;;;1.00;;
67037;SDS011;53940;53.204;6.590;2022-09-11T02:53:28;1.50;;;1.00;;
67037;SDS011;53940;53.204;6.590;2022-09-11T02:59:50;1.48;;;0.95;;
67037;SDS011;53940;53.204;6.590;2022-09-11T03:02:52;1.40;;;0.90;;
67037;SDS011;53940;53.204;6.590;2022-09-11T03:05:53;1.40;;;1.00;;
67037;SDS011;53940;53.204;6.590;2022-09-11T03:08:54;1.23;;;0.90;;
67037;SDS011;53940;53.204;6.590;2022-09-11T03:11:54;1.83;;;1.05;;
67037;SDS011;53940;53.204;6.590;2022-09-11T03:14:55;1.52;;;0.93;;
67037;SDS011;53940;53.204;6.590;2022-09-11T03:17:56;1.63;;;1.15;;
67037;SDS011;53940;53.204;6.590;2022-09-11T03:20:56;1.50;;;1.00;;
67037;SDS011;53940;53.204;6.590;2022-09-11T03:23:57;1.60;;;1.00;;
67037;SDS011;53940;53.204;6.590;2022-09-11T03:26:57;2.13;;;0.90;;
67037;SDS011;53940;53.204;6.590;2022-09-11T03:29:57;1.17;;;0.90;;
67037;SDS011;53940;53.204;6.590;2022-09-11T03:32:58;1.33;;;0.90;;
67037;SDS011;53940;53.204;6.590;2022-09-11T03:35:59;1.08;;;0.80;;
67037;SDS011;53940;53.204;6.590;2022-09-11T03:39:00;1.10;;;0.70;;
67037;SDS011;53940;53.204;6.590;2022-09-11T03:42:01;1.58;;;1.05;;
67037;SDS011;53940;53.204;6.590;2022-09-11T03:45:01;2.00;;;1.10;;
67037;SDS011;53940;53.204;6.590;2022-09-11T03:48:01;1.13;;;0.90;;
67037;SDS011;53940;53.204;6.590;2022-09-11T03:51:02;1.90;;;1.15;;
67037;SDS011;53940;53.204;6.590;2022-09-11T03:54:04;1.45;;;1.00;;
67037;SDS011;53940;53.204;6.590;2022-09-11T03:57:05;1.40;;;0.90;;
67037;SDS011;53940;53.204;6.590;2022-09-11T04:00:06;1.52;;;1.00;;
67037;SDS011;53940;53.204;6.590;2022-09-11T04:03:07;1.50;;;0.93;;
67037;SDS011;53940;53.204;6.590;2022-09-11T04:06:08;1.45;;;1.00;;
67037;SDS011;53940;53.204;6.590;2022-09-11T04:09:09;1.55;;;0.90;;
67037;SDS011;53940;53.204;6.590;2022-09-11T04:12:10;1.20;;;0.80;;
67037;SDS011;53940;53.204;6.590;2022-09-11T04:15:10;1.15;;;0.80;;
67037;SDS011;53940;53.204;6.590;2022-09-11T04:18:10;1.40;;;0.90;;
67037;SDS011;53940;53.204;6.590;2022-09-11T04:21:12;1.60;;;1.10;;
67037;SDS011;53940;53.204;6.590;2022-09-11T04:24:14;1.17;;;0.88;;
67037;SDS011;53940;53.204;6.590;2022-09-11T04:27:16;1.17;;;0.95;;
67037;SDS011;53940;53.204;6.590;2022-09-11T04:30:16;1.10;;;0.85;;
67037;SDS011;53940;53.204;6.590;2022-09-11T04:33:17;1.60;;;0.90;;
67037;SDS011;53940;53.204;6.590;2022-09-11T04:36:18;1.95;;;1.00;;
67037;SDS011;53940;53.204;6.590;2022-09-11T04:39:18;0.90;;;0.70;;
67037;SDS011;53940;53.204;6.590;2022-09-11T04:42:19;1.10;;;0.85;;
67037;SDS011;53940;53.204;6.590;2022-09-11T04:45:19;1.67;;;0.88;;
67037;SDS011;53940;53.204;6.590;2022-09-11T04:48:19;1.27;;;0.90;;
67037;SDS011;53940;53.204;6.590;2022-09-11T04:54:37;1.15;;;0.90;;
67037;SDS011;53940;53.204;6.590;2022-09-11T04:57:37;1.10;;;0.80;;
67037;SDS011;53940;53.204;6.590;2022-09-11T05:00:37;1.23;;;0.80;;
67037;SDS011;53940;53.204;6.590;2022-09-11T05:03:38;1.30;;;0.90;;
67037;SDS011;53940;53.204;6.590;2022-09-11T05:06:39;1.17;;;0.80;;
67037;SDS011;53940;53.204;6.590;2022-09-11T05:09:39;1.38;;;0.80;;
67037;SDS011;53940;53.204;6.590;2022-09-11T05:12:40;1.23;;;0.88;;
67037;SDS011;53940;53.204;6.590;2022-09-11T05:15:40;1.05;;;0.80;;
67037;SDS011;53940;53.204;6.590;2022-09-11T05:18:41;1.30;;;0.90;;
67037;SDS011;53940;53.204;6.590;2022-09-11T05:21:44;1.45;;;0.80;;
67037;SDS011;53940;53.204;6.590;2022-09-11T05:24:44;1.10;;;0.73;;
67037;SDS011;53940;53.204;6.590;2022-09-11T05:27:44;1.25;;;0.88;;
67037;SDS011;53940;53.204;6.590;2022-09-11T05:30:45;1.17;;;0.75;;
67037;SDS011;53940;53.204;6.590;2022-09-11T05:33:45;1.08;;;0.73;;
67037;SDS011;53940;53.204;6.590;2022-09-11T05:36:46;1.20;;;0.70;;
67037;SDS011;53940;53.204;6.590;2022-09-11T05:39:46;0.93;;;0.77;;
67037;SDS011;53940;53.204;6.590;2022-09-11T05:42:47;1.20;;;0.82;;
67037;SDS011;53940;53.204;6.590;2022-09-11T05:45:57;1.25;;;0.77;;
67037;SDS011;53940;53.204;6.590;2022-09-11T05:48:57;1.00;;;0.77;;
67037;SDS011;53940;53.204;6.590;2022-09-11T05:52:01;0.80;;;0.68;;
67037;SDS011;53940;53.204;6.590;2022-09-11T05:55:01;1.10;;;0.80;;
67037;SDS011;53940;53.204;6.590;2022-09-11T05:58:02;1.38;;;0.88;;
67037;SDS011;53940;53.204;6.590;2022-09-11T06:01:06;1.45;;;0.82;;
67037;SDS011;53940;53.204;6.590;2022-09-11T06:04:09;0.88;;;0.68;;
67037;SDS011;53940;53.204;6.590;2022-09-11T06:07:11;1.10;;;0.80;;
67037;SDS011;53940;53.204;6.590;2022-09-11T06:10:11;1.10;;;0.70;;
67037;SDS011;53940;53.204;6.590;2022-09-11T06:13:12;1.10;;;0.70;;
67037;SDS011;53940;53.204;6.590;2022-09-11T06:16:13;0.90;;;0.60;;
67037;SDS011;53940;53.204;6.590;2022-09-11T06:19:18;1.08;;;0.80;;
67037;SDS011;53940;53.204;6.590;2022-09-11T06:22:18;1.77;;;0.88;;
67037;SDS011;53940;53.204;6.590;2022-09-11T06:25:20;1.02;;;0.80;;
67037;SDS011;53940;53.204;6.590;2022-09-11T06:28:21;1.80;;;0.88;;
67037;SDS011;53940;53.204;6.590;2022-09-11T06:31:23;0.95;;;0.70;;
67037;SDS011;53940;53.204;6.590;2022-09-11T06:34:25;1.15;;;0.73;;
67037;SDS011;53940;53.204;6.590;2022-09-11T06:37:25;1.73;;;0.80;;
67037;SDS011;53940;53.204;6.590;2022-09-11T06:40:26;1.15;;;0.80;;
67037;SDS011;53940;53.204;6.590;2022-09-11T06:43:26;1.23;;;0.70;;
67037;SDS011;53940;53.204;6.590;2022-09-11T06:46:27;1.60;;;0.80;;
67037;SDS011;53940;53.204;6.590;2022-09-11T06:49:28;0.85;;;0.70;;
67037;SDS011;53940;53.204;6.590;2022-09-11T06:52:31;1.38;;;0.70;;
67037;SDS011;53940;53.204;6.590;2022-09-11T06:55:33;1.23;;;0.70;;
67037;SDS011;53940;53.204;6.590;2022-09-11T06:58:34;1.83;;;0.70;;
67037;SDS011;53940;53.204;6.590;2022-09-11T07:01:34;1.35;;;0.70;;
67037;SDS011;53940;53.204;6.590;2022-09-11T07:04:35;1.00;;;0.60;;
67037;SDS011;53940;53.204;6.590;2022-09-11T07:07:35;1.92;;;0.65;;
67037;SDS011;53940;53.204;6.590;2022-09-11T07:10:35;1.52;;;0.70;;
67037;SDS011;53940;53.204;6.590;2022-09-11T07:13:36;1.50;;;0.60;;
67037;SDS011;53940;53.204;6.590;2022-09-11T07:16:38;1.40;;;0.75;;
67037;SDS011;53940;53.204;6.590;2022-09-11T07:19:38;2.75;;;1.23;;
67037;SDS011;53940;53.204;6.590;2022-09-11T07:22:38;2.28;;;1.52;;
67037;SDS011;53940;53.204;6.590;2022-09-11T07:25:39;2.45;;;1.40;;
67037;SDS011;53940;53.204;6.590;2022-09-11T07:28:39;2.42;;;1.50;;
67037;SDS011;53940;53.204;6.590;2022-09-11T07:31:40;2.15;;;1.33;;
67037;SDS011;53940;53.204;6.590;2022-09-11T07:34:41;2.80;;;1.60;;
67037;SDS011;53940;53.204;6.590;2022-09-11T07:37:42;3.58;;;1.80;;
67037;SDS011;53940;53.204;6.590;2022-09-11T07:40:42;2.50;;;1.70;;
67037;SDS011;53940;53.204;6.590;2022-09-11T07:43:43;2.92;;;1.70;;
67037;SDS011;53940;53.204;6.590;2022-09-11T07:46:50;3.33;;;1.70;;
67037;SDS011;53940;53.204;6.590;2022-09-11T07:49:50;2.90;;;1.63;;
67037;SDS011;53940;53.204;6.590;2022-09-11T07:52:50;3.03;;;1.88;;
67037;SDS011;53940;53.204;6.590;2022-09-11T07:55:51;2.95;;;1.42;;
67037;SDS011;53940;53.204;6.590;2022-09-11T07:58:52;2.60;;;1.50;;
67037;SDS011;53940;53.204;6.590;2022-09-11T08:01:53;2.25;;;1.52;;
67037;SDS011;53940;53.204;6.590;2022-09-11T08:04:54;4.78;;;1.60;;
67037;SDS011;53940;53.204;6.590;2022-09-11T08:07:55;2.42;;;1.55;;
67037;SDS011;53940;53.204;6.590;2022-09-11T08:11:05;2.65;;;1.20;;
67037;SDS011;53940;53.204;6.590;2022-09-11T08:14:07;1.80;;;1.20;;
67037;SDS011;53940;53.204;6.590;2022-09-11T08:17:10;2.28;;;1.33;;
67037;SDS011;53940;53.204;6.590;2022-09-11T08:20:10;1.58;;;1.00;;
67037;SDS011;53940;53.204;6.590;2022-09-11T08:23:11;1.77;;;1.00;;
67037;SDS011;53940;53.204;6.590;2022-09-11T08:26:18;2.55;;;1.00;;
67037;SDS011;53940;53.204;6.590;2022-09-11T08:29:23;2.80;;;1.00;;
67037;SDS011;53940;53.204;6.590;2022-09-11T08:32:23;1.83;;;1.02;;
67037;SDS011;53940;53.204;6.590;2022-09-11T08:35:24;1.83;;;1.13;;
67037;SDS011;53940;53.204;6.590;2022-09-11T08:38:25;2.20;;;0.90;;
67037;SDS011;53940;53.204;6.590;2022-09-11T08:41:27;3.15;;;0.95;;
67037;SDS011;53940;53.204;6.590;2022-09-11T08:44:41;2.17;;;0.80;;
67037;SDS011;53940;53.204;6.590;2022-09-11T08:47:53;1.42;;;0.80;;
67037;SDS011;53940;53.204;6.590;2022-09-11T08:50:56;1.10;;;0.70;;
67037;SDS011;53940;53.204;6.590;2022-09-11T08:53:56;2.67;;;0.90;;
67037;SDS011;53940;53.204;6.590;2022-09-11T09:00:22;2.00;;;0.70;;
67037;SDS011;53940;53.204;6.590;2022-09-11T09:06:53;1.30;;;0.60;;
67037;SDS011;53940;53.204;6.590;2022-09-11T09:10:10;1.60;;;0.70;;
67037;SDS011;53940;53.204;6.590;2022-09-11T09:13:30;1.83;;;0.80;;
67037;SDS011;53940;53.204;6.590;2022-09-11T09:16:52;1.67;;;0.80;;
67037;SDS011;53940;53.204;6.590;2022-09-11T09:23:04;1.10;;;0.60;;
67037;SDS011;53940;53.204;6.590;2022-09-11T09:26:15;1.95;;;0.73;;
67037;SDS011;53940;53.204;6.590;2022-09-11T09:29:19;1.63;;;0.80;;
67037;SDS011;53940;53.204;6.590;2022-09-11T09:32:28;2.08;;;0.70;;
67037;SDS011;53940;53.204;6.590;2022-09-11T09:35:36;1.65;;;0.68;;
67037;SDS011;53940;53.204;6.590;2022-09-11T09:38:39;1.40;;;0.60;;
67037;SDS011;53940;53.204;6.590;2022-09-11T09:45:24;1.65;;;0.82;;
67037;SDS011;53940;53.204;6.590;2022-09-11T09:48:34;0.75;;;0.38;;
67037;SDS011;53940;53.204;6.590;2022-09-11T09:51:38;1.42;;;0.88;;
67037;SDS011;53940;53.204;6.590;2022-09-11T09:54:41;1.52;;;0.50;;
67037;SDS011;53940;53.204;6.590;2022-09-11T09:57:43;0.80;;;0.40;;
67037;SDS011;53940;53.204;6.590;2022-09-11T10:00:44;1.77;;;0.60;;
67037;SDS011;53940;53.204;6.590;2022-09-11T10:03:45;1.73;;;0.70;;
67037;SDS011;53940;53.204;6.590;2022-09-11T10:07:10;0.55;;;0.32;;
67037;SDS011;53940;53.204;6.590;2022-09-11T10:13:36;0.93;;;0.35;;
67037;SDS011;53940;53.204;6.590;2022-09-11T10:16:40;1.08;;;0.50;;
67037;SDS011;53940;53.204;6.590;2022-09-11T10:19:41;1.20;;;0.50;;
67037;SDS011;53940;53.204;6.590;2022-09-11T10:22:43;0.93;;;0.50;;
67037;SDS011;53940;53.204;6.590;2022-09-11T10:25:45;1.92;;;0.57;;
67037;SDS011;53940;53.204;6.590;2022-09-11T10:28:48;1.75;;;0.50;;
67037;SDS011;53940;53.204;6.590;2022-09-11T10:31:51;1.70;;;0.45;;
67037;SDS011;53940;53.204;6.590;2022-09-11T10:34:53;1.08;;;0.55;;
67037;SDS011;53940;53.204;6.590;2022-09-11T10:37:57;1.15;;;0.55;;
67037;SDS011;53940;53.204;6.590;2022-09-11T10:41:06;0.90;;;0.50;;
67037;SDS011;53940;53.204;6.590;2022-09-11T10:44:13;0.85;;;0.50;;
67037;SDS011;53940;53.204;6.590;2022-09-11T10:50:21;2.63;;;0.68;;
67037;SDS011;53940;53.204;6.590;2022-09-11T10:53:24;1.45;;;0.68;;
67037;SDS011;53940;53.204;6.590;2022-09-11T10:56:25;2.22;;;0.80;;
67037;SDS011;53940;53.204;6.590;2022-09-11T11:03:15;3.30;;;1.10;;
67037;SDS011;53940;53.204;6.590;2022-09-11T11:09:43;3.03;;;1.38;;
67037;SDS011;53940;53.204;6.590;2022-09-11T11:19:35;4.85;;;1.75;;
67037;SDS011;53940;53.204;6.590;2022-09-11T11:43:09;2.78;;;1.00;;
67037;SDS011;53940;53.204;6.590;2022-09-11T11:49:25;2.78;;;1.33;;
67037;SDS011;53940;53.204;6.590;2022-09-11T11:52:37;2.00;;;1.08;;
67037;SDS011;53940;53.204;6.590;2022-09-11T11:55:52;2.13;;;1.00;;
67037;SDS011;53940;53.204;6.590;2022-09-11T12:08:16;1.98;;;1.00;;
67037;SDS011;53940;53.204;6.590;2022-09-11T12:11:17;2.83;;;1.30;;
67037;SDS011;53940;53.204;6.590;2022-09-11T12:14:27;4.15;;;1.30;;
67037;SDS011;53940;53.204;6.590;2022-09-11T12:17:29;2.00;;;1.08;;
67037;SDS011;53940;53.204;6.590;2022-09-11T12:20:33;2.50;;;1.00;;
67037;SDS011;53940;53.204;6.590;2022-09-11T12:27:30;4.07;;;1.20;;
67037;SDS011;53940;53.204;6.590;2022-09-11T12:30:52;3.05;;;1.08;;
67037;SDS011;53940;53.204;6.590;2022-09-11T12:33:55;1.75;;;0.75;;
67037;SDS011;53940;53.204;6.590;2022-09-11T12:36:59;3.38;;;0.90;;
67037;SDS011;53940;53.204;6.590;2022-09-11T12:40:05;2.33;;;0.88;;
67037;SDS011;53940;53.204;6.590;2022-09-11T12:49:21;2.60;;;1.00;;
67037;SDS011;53940;53.204;6.590;2022-09-11T12:52:36;2.00;;;1.00;;
67037;SDS011;53940;53.204;6.590;2022-09-11T12:55:47;1.88;;;0.95;;
67037;SDS011;53940;53.204;6.590;2022-09-11T12:59:00;2.42;;;0.90;;
67037;SDS011;53940;53.204;6.590;2022-09-11T13:05:34;2.00;;;0.98;;
67037;SDS011;53940;53.204;6.590;2022-09-11T13:08:38;2.38;;;1.00;;
67037;SDS011;53940;53.204;6.590;2022-09-11T13:11:48;2.90;;;1.10;;
67037;SDS011;53940;53.204;6.590;2022-09-11T13:14:55;2.15;;;0.90;;
67037;SDS011;53940;53.204;6.590;2022-09-11T13:17:56;1.38;;;0.80;;
67037;SDS011;53940;53.204;6.590;2022-09-11T13:21:02;1.42;;;0.77;;
67037;SDS011;53940;53.204;6.590;2022-09-11T13:24:25;2.10;;;0.80;;
67037;SDS011;53940;53.204;6.590;2022-09-11T13:27:29;3.73;;;0.90;;
67037;SDS011;53940;53.204;6.590;2022-09-11T13:30:29;1.98;;;0.70;;
67037;SDS011;53940;53.204;6.590;2022-09-11T13:33:30;2.38;;;0.80;;
67037;SDS011;53940;53.204;6.590;2022-09-11T13:36:32;1.42;;;0.80;;
67037;SDS011;53940;53.204;6.590;2022-09-11T13:39:35;1.80;;;0.80;;
67037;SDS011;53940;53.204;6.590;2022-09-11T13:42:40;2.00;;;0.85;;
67037;SDS011;53940;53.204;6.590;2022-09-11T13:45:41;2.00;;;0.80;;
67037;SDS011;53940;53.204;6.590;2022-09-11T13:48:41;2.00;;;1.00;;
67037;SDS011;53940;53.204;6.590;2022-09-11T13:51:43;2.60;;;0.90;;
67037;SDS011;53940;53.204;6.590;2022-09-11T13:54:47;1.67;;;0.77;;
67037;SDS011;53940;53.204;6.590;2022-09-11T13:57:52;1.98;;;0.90;;
67037;SDS011;53940;53.204;6.590;2022-09-11T14:00:55;1.88;;;0.75;;
67037;SDS011;53940;53.204;6.590;2022-09-11T14:04:07;1.80;;;0.77;;
67037;SDS011;53940;53.204;6.590;2022-09-11T14:07:20;1.50;;;0.70;;
67037;SDS011;53940;53.204;6.590;2022-09-11T14:10:31;1.38;;;0.70;;
67037;SDS011;53940;53.204;6.590;2022-09-11T14:13:42;1.75;;;0.70;;
67037;SDS011;53940;53.204;6.590;2022-09-11T14:16:49;1.70;;;0.80;;
67037;SDS011;53940;53.204;6.590;2022-09-11T14:19:53;1.00;;;0.60;;
67037;SDS011;53940;53.204;6.590;2022-09-11T14:23:02;1.98;;;0.60;;
67037;SDS011;53940;53.204;6.590;2022-09-11T14:26:09;1.65;;;0.68;;
67037;SDS011;53940;53.204;6.590;2022-09-11T14:29:28;3.03;;;0.80;;
67037;SDS011;53940;53.204;6.590;2022-09-11T14:32:31;1.73;;;0.70;;
67037;SDS011;53940;53.204;6.590;2022-09-11T14:35:36;2.20;;;1.00;;
67037;SDS011;53940;53.204;6.590;2022-09-11T14:38:37;1.80;;;0.80;;
67037;SDS011;53940;53.204;6.590;2022-09-11T14:41:39;4.05;;;1.35;;
67037;SDS011;53940;53.204;6.590;2022-09-11T14:44:40;3.22;;;0.80;;
67037;SDS011;53940;53.204;6.590;2022-09-11T14:47:44;1.70;;;0.80;;
67037;SDS011;53940;53.204;6.590;2022-09-11T14:50:45;2.30;;;0.80;;
67037;SDS011;53940;53.204;6.590;2022-09-11T14:53:46;1.50;;;0.80;;
67037;SDS011;53940;53.204;6.590;2022-09-11T14:56:46;2.17;;;0.60;;
67037;SDS011;53940;53.204;6.590;2022-09-11T14:59:48;2.22;;;0.70;;
67037;SDS011;53940;53.204;6.590;2022-09-11T15:02:49;1.95;;;0.63;;
67037;SDS011;53940;53.204;6.590;2022-09-11T15:05:53;1.42;;;0.70;;
67037;SDS011;53940;53.204;6.590;2022-09-11T15:08:55;2.05;;;0.70;;
67037;SDS011;53940;53.204;6.590;2022-09-11T15:11:55;1.58;;;0.63;;
67037;SDS011;53940;53.204;6.590;2022-09-11T15:14:56;1.52;;;0.70;;
67037;SDS011;53940;53.204;6.590;2022-09-11T15:17:57;1.50;;;0.70;;
67037;SDS011;53940;53.204;6.590;2022-09-11T15:20:57;1.48;;;0.80;;
67037;SDS011;53940;53.204;6.590;2022-09-11T15:23:57;1.45;;;0.63;;
67037;SDS011;53940;53.204;6.590;2022-09-11T15:26:58;1.25;;;0.55;;
67037;SDS011;53940;53.204;6.590;2022-09-11T15:29:58;1.48;;;0.60;;
67037;SDS011;53940;53.204;6.590;2022-09-11T15:32:59;3.35;;;0.80;;
67037;SDS011;53940;53.204;6.590;2022-09-11T15:36:00;1.83;;;0.70;;
67037;SDS011;53940;53.204;6.590;2022-09-11T15:39:03;2.03;;;0.80;;
67037;SDS011;53940;53.204;6.590;2022-09-11T15:42:05;1.02;;;0.60;;
67037;SDS011;53940;53.204;6.590;2022-09-11T15:45:06;1.80;;;0.70;;
67037;SDS011;53940;53.204;6.590;2022-09-11T15:48:07;1.20;;;0.60;;
67037;SDS011;53940;53.204;6.590;2022-09-11T15:51:09;1.75;;;0.80;;
67037;SDS011;53940;53.204;6.590;2022-09-11T15:54:12;1.48;;;0.75;;
67037;SDS011;53940;53.204;6.590;2022-09-11T15:57:14;1.52;;;0.70;;
67037;SDS011;53940;53.204;6.590;2022-09-11T16:00:14;1.75;;;0.77;;
67037;SDS011;53940;53.204;6.590;2022-09-11T16:03:15;1.50;;;0.80;;
67037;SDS011;53940;53.204;6.590;2022-09-11T16:06:15;1.73;;;0.70;;
67037;SDS011;53940;53.204;6.590;2022-09-11T16:09:17;1.52;;;0.70;;
67037;SDS011;53940;53.204;6.590;2022-09-11T16:12:20;1.45;;;0.60;;
67037;SDS011;53940;53.204;6.590;2022-09-11T16:15:20;1.75;;;0.70;;
67037;SDS011;53940;53.204;6.590;2022-09-11T16:18:21;1.50;;;0.70;;
67037;SDS011;53940;53.204;6.590;2022-09-11T16:21:21;1.30;;;0.60;;
67037;SDS011;53940;53.204;6.590;2022-09-11T16:24:25;2.05;;;0.63;;
67037;SDS011;53940;53.204;6.590;2022-09-11T16:27:27;1.40;;;0.60;;
67037;SDS011;53940;53.204;6.590;2022-09-11T16:30:27;1.73;;;0.80;;
67037;SDS011;53940;53.204;6.590;2022-09-11T16:33:28;1.60;;;0.60;;
67037;SDS011;53940;53.204;6.590;2022-09-11T16:36:30;1.60;;;0.80;;
67037;SDS011;53940;53.204;6.590;2022-09-11T16:42:37;0.97;;;0.50;;
67037;SDS011;53940;53.204;6.590;2022-09-11T16:45:37;1.60;;;0.65;;
67037;SDS011;53940;53.204;6.590;2022-09-11T16:48:39;1.63;;;0.60;;
67037;SDS011;53940;53.204;6.590;2022-09-11T16:51:40;1.73;;;0.60;;
67037;SDS011;53940;53.204;6.590;2022-09-11T16:54:41;1.55;;;0.60;;
67037;SDS011;53940;53.204;6.590;2022-09-11T16:57:43;1.20;;;0.60;;
67037;SDS011;53940;53.204;6.590;2022-09-11T17:00:45;1.38;;;0.70;;
67037;SDS011;53940;53.204;6.590;2022-09-11T17:03:46;1.63;;;0.80;;
67037;SDS011;53940;53.204;6.590;2022-09-11T17:06:51;0.90;;;0.45;;
67037;SDS011;53940;53.204;6.590;2022-09-11T17:09:51;1.63;;;0.68;;
67037;SDS011;53940;53.204;6.590;2022-09-11T17:12:55;1.65;;;0.68;;
67037;SDS011;53940;53.204;6.590;2022-09-11T17:16:29;1.88;;;0.70;;
67037;SDS011;53940;53.204;6.590;2022-09-11T17:19:23;1.20;;;0.60;;
67037;SDS011;53940;53.204;6.590;2022-09-11T17:22:24;1.07;;;0.60;;
67037;SDS011;53940;53.204;6.590;2022-09-11T17:25:24;1.08;;;0.60;;
67037;SDS011;53940;53.204;6.590;2022-09-11T17:28:25;1.45;;;0.68;;
67037;SDS011;53940;53.204;6.590;2022-09-11T17:31:25;1.00;;;0.60;;
67037;SDS011;53940;53.204;6.590;2022-09-11T17:34:26;1.17;;;0.60;;
67037;SDS011;53940;53.204;6.590;2022-09-11T17:37:26;1.27;;;0.52;;
67037;SDS011;53940;53.204;6.590;2022-09-11T17:40:26;1.52;;;0.73;;
67037;SDS011;53940;53.204;6.590;2022-09-11T17:43:27;1.15;;;0.68;;
67037;SDS011;53940;53.204;6.590;2022-09-11T17:46:27;1.50;;;0.55;;
67037;SDS011;53940;53.204;6.590;2022-09-11T17:49:29;0.90;;;0.50;;
67037;SDS011;53940;53.204;6.590;2022-09-11T17:52:32;1.00;;;0.57;;
67037;SDS011;53940;53.204;6.590;2022-09-11T17:55:33;1.52;;;0.57;;
67037;SDS011;53940;53.204;6.590;2022-09-11T17:58:37;1.75;;;0.70;;
67037;SDS011;53940;53.204;6.590;2022-09-11T18:01:37;1.05;;;0.60;;
67037;SDS011;53940;53.204;6.590;2022-09-11T18:04:37;1.02;;;0.70;;
67037;SDS011;53940;53.204;6.590;2022-09-11T18:07:38;1.20;;;0.60;;
67037;SDS011;53940;53.204;6.590;2022-09-11T18:10:39;1.25;;;0.52;;
67037;SDS011;53940;53.204;6.590;2022-09-11T18:13:39;0.60;;;0.50;;
67037;SDS011;53940;53.204;6.590;2022-09-11T18:16:41;0.88;;;0.60;;
67037;SDS011;53940;53.204;6.590;2022-09-11T18:19:44;1.05;;;0.40;;
67037;SDS011;53940;53.204;6.590;2022-09-11T18:22:45;0.65;;;0.50;;
67037;SDS011;53940;53.204;6.590;2022-09-11T18:25:45;0.82;;;0.50;;
67037;SDS011;53940;53.204;6.590;2022-09-11T18:28:46;1.00;;;0.55;;
67037;SDS011;53940;53.204;6.590;2022-09-11T18:31:48;0.85;;;0.47;;
67037;SDS011;53940;53.204;6.590;2022-09-11T18:34:50;1.80;;;0.77;;
67037;SDS011;53940;53.204;6.590;2022-09-11T18:37:51;2.13;;;0.52;;
67037;SDS011;53940;53.204;6.590;2022-09-11T18:40:53;0.93;;;0.50;;
67037;SDS011;53940;53.204;6.590;2022-09-11T18:43:55;1.15;;;0.60;;
67037;SDS011;53940;53.204;6.590;2022-09-11T18:46:56;0.82;;;0.60;;
67037;SDS011;53940;53.204;6.590;2022-09-11T18:49:56;1.00;;;0.68;;
67037;SDS011;53940;53.204;6.590;2022-09-11T18:52:57;0.90;;;0.50;;
67037;SDS011;53940;53.204;6.590;2022-09-11T18:55:58;1.38;;;0.50;;
67037;SDS011;53940;53.204;6.590;2022-09-11T18:58:59;1.63;;;0.60;;
67037;SDS011;53940;53.204;6.590;2022-09-11T19:02:00;0.70;;;0.47;;
67037;SDS011;53940;53.204;6.590;2022-09-11T19:05:00;1.10;;;0.55;;
67037;SDS011;53940;53.204;6.590;2022-09-11T19:08:01;1.38;;;0.68;;
67037;SDS011;53940;53.204;6.590;2022-09-11T19:11:09;0.75;;;0.50;;
67037;SDS011;53940;53.204;6.590;2022-09-11T19:14:11;1.95;;;0.50;;
67037;SDS011;53940;53.204;6.590;2022-09-11T19:17:12;0.45;;;0.30;;
67037;SDS011;53940;53.204;6.590;2022-09-11T19:20:12;2.00;;;0.70;;
67037;SDS011;53940;53.204;6.590;2022-09-11T19:23:12;0.70;;;0.40;;
67037;SDS011;53940;53.204;6.590;2022-09-11T19:26:14;0.98;;;0.60;;
67037;SDS011;53940;53.204;6.590;2022-09-11T19:29:14;1.30;;;0.50;;
67037;SDS011;53940;53.204;6.590;2022-09-11T19:32:15;0.88;;;0.60;;
67037;SDS011;53940;53.204;6.590;2022-09-11T19:35:16;1.15;;;0.60;;
67037;SDS011;53940;53.204;6.590;2022-09-11T19:38:17;0.80;;;0.50;;
67037;SDS011;53940;53.204;6.590;2022-09-11T19:41:18;0.77;;;0.50;;
67037;SDS011;53940;53.204;6.590;2022-09-11T19:44:19;1.02;;;0.57;;
67037;SDS011;53940;53.204;6.590;2022-09-11T19:47:20;1.05;;;0.45;;
67037;SDS011;53940;53.204;6.590;2022-09-11T19:50:20;1.17;;;0.50;;
67037;SDS011;53940;53.204;6.590;2022-09-11T19:53:21;1.05;;;0.50;;
67037;SDS011;53940;53.204;6.590;2022-09-11T19:56:23;1.55;;;0.60;;
67037;SDS011;53940;53.204;6.590;2022-09-11T19:59:25;0.90;;;0.43;;
67037;SDS011;53940;53.204;6.590;2022-09-11T20:02:25;0.70;;;0.55;;
67037;SDS011;53940;53.204;6.590;2022-09-11T20:05:26;0.82;;;0.50;;
67037;SDS011;53940;53.204;6.590;2022-09-11T20:08:26;1.08;;;0.57;;
67037;SDS011;53940;53.204;6.590;2022-09-11T20:11:26;0.68;;;0.50;;
67037;SDS011;53940;53.204;6.590;2022-09-11T20:14:28;0.90;;;0.40;;